Archimede — IXZR — position and weather

sailwx.info

Track history (hours):
 
Tides and Currents Weather Stations Pressure Air Temp Water Temp Dewpoint Dewpoint Depression Visibility Wind Speed Wind Dir Waves Ship Positions

Archimede

Last reported at 2014-Jul-18 10:18 UTC. Time now 2014-Jul-26 05:07 UTC.
Position N 38°10' E 015°36'.

; draft 3.1 m.

Type: Passenger vessel. MMSI: 247054700.

Date/timePositionNaut miles runAvg speedWind from/ knotsBaromVisibWave heightAir tempDewpointWater temp
2014-Jul-18 10:18N 38°10' E 015°36'2 1.8
2014-Jul-18 09:07N 38°09' E 015°34'5 8.4
2014-Jul-18 08:33N 38°13' E 015°37'3 1.3
2014-Jul-18 06:33N 38°11' E 015°35'3 0.2
2014-Jul-17 16:31N 38°13' E 015°38'6 2.8
2014-Jul-17 14:32N 38°09' E 015°34'5 5.0
2014-Jul-17 13:31N 38°13' E 015°37'0 0.1
2014-Jul-17 11:31N 38°13' E 015°38'2 1.6
2014-Jul-17 10:32N 38°12' E 015°37'4 2.9
2014-Jul-17 09:09N 38°09' E 015°33'5 8.7
2014-Jul-17 08:33N 38°13' E 015°37'  
Track history (hours):
 
Tides and Currents Weather Stations Pressure Air Temp Water Temp Dewpoint Dewpoint Depression Visibility Wind Speed Wind Dir Waves Ship Positions

Archimede

Last reported at 2014-Jul-18 10:18 UTC. Time now 2014-Jul-26 05:07 UTC.
Position N 38°10' E 015°36'.

; draft 3.1 m.

Type: Passenger vessel. MMSI: 247054700.

Date/timePositionNaut miles runAvg speedWind from/ knotsBaromVisibWave heightAir tempDewpointWater temp
2014-Jul-18 10:18N 38°10' E 015°36'2 1.8
2014-Jul-18 09:07N 38°09' E 015°34'5 8.4
2014-Jul-18 08:33N 38°13' E 015°37'3 1.3
2014-Jul-18 06:33N 38°11' E 015°35'3 0.2
2014-Jul-17 16:31N 38°13' E 015°38'6 2.8
2014-Jul-17 14:32N 38°09' E 015°34'5 5.0
2014-Jul-17 13:31N 38°13' E 015°37'0 0.1
2014-Jul-17 11:31N 38°13' E 015°38'2 1.6
2014-Jul-17 10:32N 38°12' E 015°37'4 2.9
2014-Jul-17 09:09N 38°09' E 015°33'5 8.7
2014-Jul-17 08:33N 38°13' E 015°37'  

Dump ship's entire track history